ROMMA est une association bénévole à but non lucratif. Votre soutien est indispensable : ADHERER à ROMMA ou FAIRE un DON

Granges-lès-Beaumont - (26, Drôme)

Drôme des Collines (155 m)   Longitude: 04°58'E   Latitude: 45°03'N Station partenaire n°123
 

Détail journalier du     <<     >>

Température Precipitation Humidité Pression Vent Dir Rafale Dir. rafale Ensol.
Heure (°C) (mm) (%) (hPa) (km/h) (km/h) (min)
01:00 1.208710232N6N0
02:00 0.608810232N6N0
03:00 0.608810241---6N0
04:00 -0.2088102400---0
05:00 -0.4089102400---0
06:00 -1.4088102400---0
07:00 -0.8089102400---0
08:00 -1.1089102500---0
09:00 1.2090102500---30
10:00 3.8088102600---0
11:00 6.408110262E8E0
12:00 8.507310263ESE10E40
13:00 11.006610253ESE8ESE60
14:00 13.106310254SE11ESE60
15:00 14.105810242SE10SE60
16:00 13.905710243SSE6S60
17:00 13.705710242SSE5SSE60
18:00 12.805910241SSE5SSE40
19:00 8.607310253SSE10SSE0
20:00 6.807910253NNO8NNO0
21:00 5.108010261NNO6NNO0
22:00 4.208410261NNO8NNO0
23:00 3.2085102600---0
minuit 2.2086102700---0

Graphique du 20-02-2019

 

Serveur OMMA